sensor_id;sensor_type;location;lat;lon;timestamp;pressure;altitude;pressure_sealevel;temperature;humidity
69402;BME280;56589;51.992;5.924;2022-08-21T00:01:37;101183.03;;;16.26;64.22
69402;BME280;56589;51.992;5.924;2022-08-21T00:04:04;101169.16;;;16.22;64.08
69402;BME280;56589;51.992;5.924;2022-08-21T00:06:31;101177.38;;;16.19;64.28
69402;BME280;56589;51.992;5.924;2022-08-21T00:08:57;101168.69;;;16.17;63.74
69402;BME280;56589;51.992;5.924;2022-08-21T00:11:23;101176.50;;;16.18;64.01
69402;BME280;56589;51.992;5.924;2022-08-21T00:13:49;101173.16;;;16.16;64.16
69402;BME280;56589;51.992;5.924;2022-08-21T00:16:14;101166.41;;;16.12;63.99
69402;BME280;56589;51.992;5.924;2022-08-21T00:18:43;101163.19;;;16.09;64.14
69402;BME280;56589;51.992;5.924;2022-08-21T00:21:10;101165.13;;;16.07;64.05
69402;BME280;56589;51.992;5.924;2022-08-21T00:23:37;101164.25;;;16.06;64.29
69402;BME280;56589;51.992;5.924;2022-08-21T00:26:03;101158.13;;;16.06;64.37
69402;BME280;56589;51.992;5.924;2022-08-21T00:28:29;101165.97;;;16.07;64.83
69402;BME280;56589;51.992;5.924;2022-08-21T00:30:55;101164.16;;;16.08;64.44
69402;BME280;56589;51.992;5.924;2022-08-21T00:33:21;101165.13;;;16.07;64.55
69402;BME280;56589;51.992;5.924;2022-08-21T00:35:50;101169.56;;;16.06;64.80
69402;BME280;56589;51.992;5.924;2022-08-21T00:38:17;101162.84;;;16.02;65.06
69402;BME280;56589;51.992;5.924;2022-08-21T00:40:47;101171.16;;;15.98;64.98
69402;BME280;56589;51.992;5.924;2022-08-21T00:43:19;101170.59;;;15.94;65.01
69402;BME280;56589;51.992;5.924;2022-08-21T00:45:47;101158.53;;;15.90;65.12
69402;BME280;56589;51.992;5.924;2022-08-21T00:48:13;101167.47;;;15.89;65.21
69402;BME280;56589;51.992;5.924;2022-08-21T00:50:43;101163.97;;;15.88;65.07
69402;BME280;56589;51.992;5.924;2022-08-21T00:53:14;101159.75;;;15.86;65.17
69402;BME280;56589;51.992;5.924;2022-08-21T00:55:42;101165.88;;;15.86;65.30
69402;BME280;56589;51.992;5.924;2022-08-21T00:58:11;101156.13;;;15.87;65.43
69402;BME280;56589;51.992;5.924;2022-08-21T01:00:41;101154.31;;;15.87;65.26
69402;BME280;56589;51.992;5.924;2022-08-21T01:03:11;101156.13;;;15.87;65.36
69402;BME280;56589;51.992;5.924;2022-08-21T01:05:38;101158.91;;;15.85;65.35
69402;BME280;56589;51.992;5.924;2022-08-21T01:08:06;101145.78;;;15.84;65.09
69402;BME280;56589;51.992;5.924;2022-08-21T01:10:36;101143.38;;;15.81;65.04
69402;BME280;56589;51.992;5.924;2022-08-21T01:13:03;101147.13;;;15.78;65.19
69402;BME280;56589;51.992;5.924;2022-08-21T01:15:34;101145.44;;;15.77;64.83
69402;BME280;56589;51.992;5.924;2022-08-21T01:18:05;101147.34;;;15.75;64.85
69402;BME280;56589;51.992;5.924;2022-08-21T01:20:35;101154.47;;;15.75;65.18
69402;BME280;56589;51.992;5.924;2022-08-21T01:23:05;101154.59;;;15.73;65.16
69402;BME280;56589;51.992;5.924;2022-08-21T01:25:31;101159.88;;;15.73;64.81
69402;BME280;56589;51.992;5.924;2022-08-21T01:28:00;101154.47;;;15.75;64.80
69402;BME280;56589;51.992;5.924;2022-08-21T01:30:34;101154.59;;;15.73;64.54
69402;BME280;56589;51.992;5.924;2022-08-21T01:33:02;101163.50;;;15.72;64.45
69402;BME280;56589;51.992;5.924;2022-08-21T01:35:28;101160.84;;;15.72;64.59
69402;BME280;56589;51.992;5.924;2022-08-21T01:37:54;101158.22;;;15.72;64.77
69402;BME280;56589;51.992;5.924;2022-08-21T01:40:22;101156.63;;;15.70;64.99
69402;BME280;56589;51.992;5.924;2022-08-21T01:42:48;101162.16;;;15.66;64.54
69402;BME280;56589;51.992;5.924;2022-08-21T01:45:15;101155.19;;;15.65;64.59
69402;BME280;56589;51.992;5.924;2022-08-21T01:47:41;101155.31;;;15.64;64.60
69402;BME280;56589;51.992;5.924;2022-08-21T01:50:10;101157.13;;;15.63;64.69
69402;BME280;56589;51.992;5.924;2022-08-21T01:52:38;101154.56;;;15.62;65.04
69402;BME280;56589;51.992;5.924;2022-08-21T01:55:06;101156.63;;;15.58;65.13
69402;BME280;56589;51.992;5.924;2022-08-21T01:57:38;101158.53;;;15.56;65.45
69402;BME280;56589;51.992;5.924;2022-08-21T02:00:06;101149.88;;;15.54;65.48
69402;BME280;56589;51.992;5.924;2022-08-21T02:02:35;101151.56;;;15.55;65.22
69402;BME280;56589;51.992;5.924;2022-08-21T02:05:01;101149.28;;;15.51;65.13
69402;BME280;56589;51.992;5.924;2022-08-21T02:07:27;101148.69;;;15.47;65.29
69402;BME280;56589;51.992;5.924;2022-08-21T02:09:53;101141.81;;;15.45;65.20
69402;BME280;56589;51.992;5.924;2022-08-21T02:12:18;101143.88;;;15.41;65.34
69402;BME280;56589;51.992;5.924;2022-08-21T02:14:47;101135.59;;;15.34;65.81
69402;BME280;56589;51.992;5.924;2022-08-21T02:17:12;101132.47;;;15.29;65.79
69402;BME280;56589;51.992;5.924;2022-08-21T02:19:38;101132.81;;;15.25;65.47
69402;BME280;56589;51.992;5.924;2022-08-21T02:22:04;101135.47;;;15.25;65.65
69402;BME280;56589;51.992;5.924;2022-08-21T02:24:29;101136.44;;;15.24;65.80
69402;BME280;56589;51.992;5.924;2022-08-21T02:26:55;101132.09;;;15.23;65.97
69402;BME280;56589;51.992;5.924;2022-08-21T02:29:21;101129.44;;;15.23;65.62
69402;BME280;56589;51.992;5.924;2022-08-21T02:31:49;101122.50;;;15.22;65.73
69402;BME280;56589;51.992;5.924;2022-08-21T02:34:15;101126.94;;;15.21;65.92
69402;BME280;56589;51.992;5.924;2022-08-21T02:36:40;101133.91;;;15.22;65.83
69402;BME280;56589;51.992;5.924;2022-08-21T02:39:06;101126.09;;;15.21;65.72
69402;BME280;56589;51.992;5.924;2022-08-21T02:41:32;101125.22;;;15.20;65.97
69402;BME280;56589;51.992;5.924;2022-08-21T02:43:58;101123.44;;;15.21;66.14
69402;BME280;56589;51.992;5.924;2022-08-21T02:46:26;101117.19;;;15.22;65.53
69402;BME280;56589;51.992;5.924;2022-08-21T02:48:54;101119.94;;;15.20;65.82
69402;BME280;56589;51.992;5.924;2022-08-21T02:51:20;101123.53;;;15.19;66.05
69402;BME280;56589;51.992;5.924;2022-08-21T02:53:47;101117.53;;;15.17;66.39
69402;BME280;56589;51.992;5.924;2022-08-21T02:56:18;101124.50;;;15.18;66.15
69402;BME280;56589;51.992;5.924;2022-08-21T02:58:47;101115.88;;;15.16;66.11
69402;BME280;56589;51.992;5.924;2022-08-21T03:01:16;101116.00;;;15.15;66.17
69402;BME280;56589;51.992;5.924;2022-08-21T03:03:44;101116.94;;;15.13;65.99
69402;BME280;56589;51.992;5.924;2022-08-21T03:06:15;101111.78;;;15.12;66.17
69402;BME280;56589;51.992;5.924;2022-08-21T03:08:43;101114.53;;;15.10;66.35
69402;BME280;56589;51.992;5.924;2022-08-21T03:11:11;101111.28;;;15.07;66.70
69402;BME280;56589;51.992;5.924;2022-08-21T03:13:38;101117.66;;;15.04;66.38
69402;BME280;56589;51.992;5.924;2022-08-21T03:16:05;101115.25;;;15.01;66.66
69402;BME280;56589;51.992;5.924;2022-08-21T03:18:32;101111.16;;;14.97;66.65
69402;BME280;56589;51.992;5.924;2022-08-21T03:20:58;101109.59;;;14.95;66.92
69402;BME280;56589;51.992;5.924;2022-08-21T03:23:26;101109.97;;;14.90;66.84
69402;BME280;56589;51.992;5.924;2022-08-21T03:25:52;101100.44;;;14.88;66.99
69402;BME280;56589;51.992;5.924;2022-08-21T03:28:20;101109.47;;;14.85;67.14
69402;BME280;56589;51.992;5.924;2022-08-21T03:30:48;101109.94;;;14.79;67.36
69402;BME280;56589;51.992;5.924;2022-08-21T03:33:16;101108.34;;;14.76;67.54
69402;BME280;56589;51.992;5.924;2022-08-21T03:35:45;101105.13;;;14.73;67.32
69402;BME280;56589;51.992;5.924;2022-08-21T03:38:17;101102.69;;;14.70;67.67
69402;BME280;56589;51.992;5.924;2022-08-21T03:40:46;101101.03;;;14.69;67.41
69402;BME280;56589;51.992;5.924;2022-08-21T03:43:12;101102.81;;;14.68;67.76
69402;BME280;56589;51.992;5.924;2022-08-21T03:45:40;101107.41;;;14.66;67.84
69402;BME280;56589;51.992;5.924;2022-08-21T03:48:07;101105.81;;;14.64;67.91
69402;BME280;56589;51.992;5.924;2022-08-21T03:50:35;101104.13;;;14.63;67.43
69402;BME280;56589;51.992;5.924;2022-08-21T03:53:03;101098.09;;;14.61;67.71
69402;BME280;56589;51.992;5.924;2022-08-21T03:55:29;101099.06;;;14.59;68.09
69402;BME280;56589;51.992;5.924;2022-08-21T03:57:57;101099.06;;;14.59;68.18
69402;BME280;56589;51.992;5.924;2022-08-21T04:00:23;101100.13;;;14.57;67.98
69402;BME280;56589;51.992;5.924;2022-08-21T04:02:50;101099.28;;;14.56;68.45
69402;BME280;56589;51.992;5.924;2022-08-21T04:05:18;101102.03;;;14.55;68.12
69402;BME280;56589;51.992;5.924;2022-08-21T04:07:45;101101.19;;;14.54;68.35
69402;BME280;56589;51.992;5.924;2022-08-21T04:10:11;101105.53;;;14.55;68.30
69402;BME280;56589;51.992;5.924;2022-08-21T04:12:37;101109.00;;;14.56;68.41
69402;BME280;56589;51.992;5.924;2022-08-21T04:15:06;101096.88;;;14.53;68.04
69402;BME280;56589;51.992;5.924;2022-08-21T04:17:32;101096.03;;;14.53;68.45
69402;BME280;56589;51.992;5.924;2022-08-21T04:19:58;101086.53;;;14.50;68.34
69402;BME280;56589;51.992;5.924;2022-08-21T04:22:24;101088.34;;;14.50;68.18
69402;BME280;56589;51.992;5.924;2022-08-21T04:24:50;101084.13;;;14.47;68.23
69402;BME280;56589;51.992;5.924;2022-08-21T04:27:15;101083.50;;;14.44;68.48
69402;BME280;56589;51.992;5.924;2022-08-21T04:29:41;101086.28;;;14.42;68.85
69402;BME280;56589;51.992;5.924;2022-08-21T04:32:10;101087.97;;;14.43;68.86
69402;BME280;56589;51.992;5.924;2022-08-21T04:34:35;101096.84;;;14.42;68.81
69402;BME280;56589;51.992;5.924;2022-08-21T04:37:01;101090.94;;;14.39;69.25
69402;BME280;56589;51.992;5.924;2022-08-21T04:39:27;101093.91;;;14.34;68.90
69402;BME280;56589;51.992;5.924;2022-08-21T04:41:53;101090.56;;;14.32;69.02
69402;BME280;56589;51.992;5.924;2022-08-21T04:44:19;101090.56;;;14.32;69.45
69402;BME280;56589;51.992;5.924;2022-08-21T04:46:44;101092.69;;;14.27;69.59
69402;BME280;56589;51.992;5.924;2022-08-21T04:49:13;101090.41;;;14.22;69.51
69402;BME280;56589;51.992;5.924;2022-08-21T04:51:39;101085.13;;;14.22;69.78
69402;BME280;56589;51.992;5.924;2022-08-21T04:54:09;101091.97;;;14.25;70.16
69402;BME280;56589;51.992;5.924;2022-08-21T04:56:40;101083.72;;;14.29;69.71
69402;BME280;56589;51.992;5.924;2022-08-21T04:59:13;101092.22;;;14.33;69.63
69402;BME280;56589;51.992;5.924;2022-08-21T05:01:43;101097.19;;;14.38;70.04
69402;BME280;56589;51.992;5.924;2022-08-21T05:04:15;101096.84;;;14.42;69.82
69402;BME280;56589;51.992;5.924;2022-08-21T05:06:45;101097.81;;;14.41;70.20
69402;BME280;56589;51.992;5.924;2022-08-21T05:09:14;101093.13;;;14.45;70.14
69402;BME280;56589;51.992;5.924;2022-08-21T05:11:42;101093.16;;;14.56;70.14
69402;BME280;56589;51.992;5.924;2022-08-21T05:14:09;101095.16;;;14.65;70.08
69402;BME280;56589;51.992;5.924;2022-08-21T05:16:36;101096.09;;;14.75;69.53
69402;BME280;56589;51.992;5.924;2022-08-21T05:19:02;101101.63;;;14.83;69.89
69402;BME280;56589;51.992;5.924;2022-08-21T05:21:32;101105.25;;;14.94;69.53
69402;BME280;56589;51.992;5.924;2022-08-21T05:23:58;101109.00;;;15.02;69.64
69402;BME280;56589;51.992;5.924;2022-08-21T05:26:24;101108.41;;;15.10;69.35
69402;BME280;56589;51.992;5.924;2022-08-21T05:28:50;101112.25;;;15.17;68.79
69402;BME280;56589;51.992;5.924;2022-08-21T05:31:16;101117.91;;;15.24;68.75
69402;BME280;56589;51.992;5.924;2022-08-21T05:33:42;101119.22;;;15.29;68.99
69402;BME280;56589;51.992;5.924;2022-08-21T05:36:07;101116.47;;;15.31;68.59
69402;BME280;56589;51.992;5.924;2022-08-21T05:38:36;101128.50;;;15.35;68.65
69402;BME280;56589;51.992;5.924;2022-08-21T05:41:02;101125.59;;;15.38;68.66
69402;BME280;56589;51.992;5.924;2022-08-21T05:43:27;101134.50;;;15.48;68.70
69402;BME280;56589;51.992;5.924;2022-08-21T05:45:53;101129.31;;;15.58;69.03
69402;BME280;56589;51.992;5.924;2022-08-21T05:48:21;101131.47;;;15.86;69.91
69402;BME280;56589;51.992;5.924;2022-08-21T05:50:51;101130.13;;;16.56;70.83
69402;BME280;56589;51.992;5.924;2022-08-21T05:53:19;101133.59;;;17.50;69.55
69402;BME280;56589;51.992;5.924;2022-08-21T05:55:49;101143.84;;;18.53;68.21
69402;BME280;56589;51.992;5.924;2022-08-21T05:58:19;101126.84;;;19.39;66.59
69402;BME280;56589;51.992;5.924;2022-08-21T06:00:47;101136.19;;;20.16;63.99
69402;BME280;56589;51.992;5.924;2022-08-21T06:03:16;101133.44;;;20.80;62.59
69402;BME280;56589;51.992;5.924;2022-08-21T06:05:45;101138.00;;;21.47;61.22
69402;BME280;56589;51.992;5.924;2022-08-21T06:08:11;101137.56;;;22.11;59.37
69402;BME280;56589;51.992;5.924;2022-08-21T06:10:38;101128.56;;;22.69;57.84
69402;BME280;56589;51.992;5.924;2022-08-21T06:13:06;101126.78;;;23.25;56.25
69402;BME280;56589;51.992;5.924;2022-08-21T06:15:33;101133.78;;;23.73;54.69
69402;BME280;56589;51.992;5.924;2022-08-21T06:17:59;101138.75;;;24.15;53.40
69402;BME280;56589;51.992;5.924;2022-08-21T06:20:26;101130.38;;;24.56;51.55
69402;BME280;56589;51.992;5.924;2022-08-21T06:22:52;101137.03;;;24.83;50.86
69402;BME280;56589;51.992;5.924;2022-08-21T06:25:18;101137.53;;;25.16;49.82
69402;BME280;56589;51.992;5.924;2022-08-21T06:27:44;101134.41;;;25.42;49.20
69402;BME280;56589;51.992;5.924;2022-08-21T06:30:13;101146.22;;;25.77;47.98
69402;BME280;56589;51.992;5.924;2022-08-21T06:32:39;101135.66;;;25.97;48.01
69402;BME280;56589;51.992;5.924;2022-08-21T06:35:06;101138.59;;;26.17;47.16
69402;BME280;56589;51.992;5.924;2022-08-21T06:37:33;101140.50;;;26.45;46.60
69402;BME280;56589;51.992;5.924;2022-08-21T06:39:59;101139.44;;;26.67;45.55
69402;BME280;56589;51.992;5.924;2022-08-21T06:42:27;101142.91;;;26.82;45.26
69402;BME280;56589;51.992;5.924;2022-08-21T06:44:53;101144.69;;;27.03;44.35
69402;BME280;56589;51.992;5.924;2022-08-21T06:47:22;101142.31;;;27.22;43.62
69402;BME280;56589;51.992;5.924;2022-08-21T06:49:48;101146.38;;;27.39;43.24
69402;BME280;56589;51.992;5.924;2022-08-21T06:52:15;101143.31;;;27.49;42.55
69402;BME280;56589;51.992;5.924;2022-08-21T06:54:41;101142.28;;;27.50;42.33
69402;BME280;56589;51.992;5.924;2022-08-21T06:57:07;101132.94;;;27.46;42.14
69402;BME280;56589;51.992;5.924;2022-08-21T06:59:33;101140.69;;;27.27;41.26
69402;BME280;56589;51.992;5.924;2022-08-21T07:01:59;101145.59;;;27.17;42.03
69402;BME280;56589;51.992;5.924;2022-08-21T07:04:29;101146.22;;;27.13;41.96
69402;BME280;56589;51.992;5.924;2022-08-21T07:06:55;101138.31;;;26.76;41.64
69402;BME280;56589;51.992;5.924;2022-08-21T07:09:21;101145.13;;;25.93;42.36
69402;BME280;56589;51.992;5.924;2022-08-21T07:11:50;101136.41;;;25.11;43.31
69402;BME280;56589;51.992;5.924;2022-08-21T07:14:18;101139.03;;;24.43;44.01
69402;BME280;56589;51.992;5.924;2022-08-21T07:16:44;101139.56;;;23.93;45.28
69402;BME280;56589;51.992;5.924;2022-08-21T07:19:10;101134.75;;;23.49;46.12
69402;BME280;56589;51.992;5.924;2022-08-21T07:21:38;101130.16;;;23.19;46.73
69402;BME280;56589;51.992;5.924;2022-08-21T07:24:04;101129.38;;;22.85;47.06
69402;BME280;56589;51.992;5.924;2022-08-21T07:26:30;101127.69;;;22.60;48.20
69402;BME280;56589;51.992;5.924;2022-08-21T07:28:56;101125.69;;;22.29;48.36
69402;BME280;56589;51.992;5.924;2022-08-21T07:31:23;101119.50;;;22.04;49.19
69402;BME280;56589;51.992;5.924;2022-08-21T07:33:50;101124.78;;;21.88;49.73
69402;BME280;56589;51.992;5.924;2022-08-21T07:36:18;101123.09;;;21.79;50.06
69402;BME280;56589;51.992;5.924;2022-08-21T07:38:47;101122.72;;;21.74;50.79
69402;BME280;56589;51.992;5.924;2022-08-21T07:41:15;101123.22;;;21.69;50.80
69402;BME280;56589;51.992;5.924;2022-08-21T07:43:43;101120.34;;;21.63;51.03
69402;BME280;56589;51.992;5.924;2022-08-21T07:46:10;101116.47;;;21.49;51.80
69402;BME280;56589;51.992;5.924;2022-08-21T07:48:36;101117.59;;;21.38;52.28
69402;BME280;56589;51.992;5.924;2022-08-21T07:51:05;101129.47;;;21.44;52.36
69402;BME280;56589;51.992;5.924;2022-08-21T07:53:34;101121.16;;;21.47;52.31
69402;BME280;56589;51.992;5.924;2022-08-21T07:56:05;101110.97;;;21.50;52.50
69402;BME280;56589;51.992;5.924;2022-08-21T07:58:31;101119.63;;;21.52;52.52
69402;BME280;56589;51.992;5.924;2022-08-21T08:00:58;101120.50;;;21.53;52.50
69402;BME280;56589;51.992;5.924;2022-08-21T08:03:24;101113.47;;;21.52;52.61
69402;BME280;56589;51.992;5.924;2022-08-21T08:05:50;101120.28;;;21.46;52.85
69402;BME280;56589;51.992;5.924;2022-08-21T08:08:16;101115.56;;;21.32;53.32
69402;BME280;56589;51.992;5.924;2022-08-21T08:10:43;101116.66;;;21.21;53.56
69402;BME280;56589;51.992;5.924;2022-08-21T08:13:12;101118.84;;;21.18;54.26
69402;BME280;56589;51.992;5.924;2022-08-21T08:15:38;101122.53;;;21.25;54.67
69402;BME280;56589;51.992;5.924;2022-08-21T08:18:03;101119.13;;;21.41;54.72
69402;BME280;56589;51.992;5.924;2022-08-21T08:20:29;101116.84;;;21.54;54.35
69402;BME280;56589;51.992;5.924;2022-08-21T08:22:55;101117.50;;;21.64;54.34
69402;BME280;56589;51.992;5.924;2022-08-21T08:25:23;101126.56;;;21.71;54.37
69402;BME280;56589;51.992;5.924;2022-08-21T08:27:50;101115.38;;;21.76;54.29
69402;BME280;56589;51.992;5.924;2022-08-21T08:30:21;101119.94;;;21.84;54.41
69402;BME280;56589;51.992;5.924;2022-08-21T08:32:48;101111.13;;;21.91;54.16
69402;BME280;56589;51.992;5.924;2022-08-21T08:35:14;101119.97;;;22.00;54.10
69402;BME280;56589;51.992;5.924;2022-08-21T08:37:41;101107.47;;;22.09;54.09
69402;BME280;56589;51.992;5.924;2022-08-21T08:40:11;101101.09;;;22.18;54.14
69402;BME280;56589;51.992;5.924;2022-08-21T08:42:40;101099.13;;;22.28;54.04
69402;BME280;56589;51.992;5.924;2022-08-21T08:45:09;101103.97;;;22.41;54.02
69402;BME280;56589;51.992;5.924;2022-08-21T08:47:43;101107.31;;;22.59;53.46
69402;BME280;56589;51.992;5.924;2022-08-21T08:50:17;101109.47;;;22.80;52.86
69402;BME280;56589;51.992;5.924;2022-08-21T08:52:49;101109.94;;;22.92;52.44
69402;BME280;56589;51.992;5.924;2022-08-21T08:55:21;101103.72;;;22.99;52.43
69402;BME280;56589;51.992;5.924;2022-08-21T08:57:58;101104.75;;;23.06;52.35
69402;BME280;56589;51.992;5.924;2022-08-21T09:00:24;101104.47;;;23.24;52.41
69402;BME280;56589;51.992;5.924;2022-08-21T09:02:56;101107.44;;;23.46;52.12
69402;BME280;56589;51.992;5.924;2022-08-21T09:05:26;101101.84;;;23.63;51.47
69402;BME280;56589;51.992;5.924;2022-08-21T09:08:03;101108.09;;;23.79;50.97
69402;BME280;56589;51.992;5.924;2022-08-21T09:11:01;101105.53;;;23.85;50.93
69402;BME280;56589;51.992;5.924;2022-08-21T09:13:36;101108.34;;;23.92;50.71
69402;BME280;56589;51.992;5.924;2022-08-21T09:16:20;101100.28;;;24.00;50.28
69402;BME280;56589;51.992;5.924;2022-08-21T09:19:05;101101.94;;;24.01;49.74
69402;BME280;56589;51.992;5.924;2022-08-21T09:21:52;101103.84;;;23.92;49.73
69402;BME280;56589;51.992;5.924;2022-08-21T09:24:32;101106.38;;;23.86;49.12
69402;BME280;56589;51.992;5.924;2022-08-21T09:27:07;101101.00;;;23.86;49.41
69402;BME280;56589;51.992;5.924;2022-08-21T09:29:37;101095.97;;;23.91;49.34
69402;BME280;56589;51.992;5.924;2022-08-21T09:32:10;101096.06;;;23.98;49.21
69402;BME280;56589;51.992;5.924;2022-08-21T09:34:42;101097.41;;;24.02;48.92
69402;BME280;56589;51.992;5.924;2022-08-21T09:37:16;101089.16;;;24.03;48.92
69402;BME280;56589;51.992;5.924;2022-08-21T09:39:43;101093.31;;;24.14;49.82
69402;BME280;56589;51.992;5.924;2022-08-21T09:42:09;101087.41;;;24.56;50.16
69402;BME280;56589;51.992;5.924;2022-08-21T09:44:38;101095.13;;;25.33;48.57
69402;BME280;56589;51.992;5.924;2022-08-21T09:47:06;101098.78;;;26.13;47.44
69402;BME280;56589;51.992;5.924;2022-08-21T09:49:34;101095.03;;;26.84;46.08
69402;BME280;56589;51.992;5.924;2022-08-21T09:52:15;101099.97;;;27.50;43.84
69402;BME280;56589;51.992;5.924;2022-08-21T09:54:45;101105.94;;;27.94;43.77
69402;BME280;56589;51.992;5.924;2022-08-21T09:57:16;101113.00;;;28.21;42.71
69402;BME280;56589;51.992;5.924;2022-08-21T09:59:48;101118.84;;;28.31;42.45
69402;BME280;56589;51.992;5.924;2022-08-21T10:02:22;101111.34;;;28.20;40.44
69402;BME280;56589;51.992;5.924;2022-08-21T10:04:54;101109.91;;;28.04;41.16
69402;BME280;56589;51.992;5.924;2022-08-21T10:07:27;101106.78;;;28.21;40.72
69402;BME280;56589;51.992;5.924;2022-08-21T10:10:03;101110.53;;;28.39;40.09
69402;BME280;56589;51.992;5.924;2022-08-21T10:12:39;101104.53;;;28.64;39.33
69402;BME280;56589;51.992;5.924;2022-08-21T10:15:19;101106.56;;;28.82;38.79
69402;BME280;56589;51.992;5.924;2022-08-21T10:17:55;101106.34;;;28.96;38.23
69402;BME280;56589;51.992;5.924;2022-08-21T10:20:35;101100.97;;;28.90;37.98
69402;BME280;56589;51.992;5.924;2022-08-21T10:23:21;101103.69;;;28.63;37.83
69402;BME280;56589;51.992;5.924;2022-08-21T10:26:15;101096.19;;;28.06;38.62
69402;BME280;56589;51.992;5.924;2022-08-21T10:28:59;101093.13;;;27.54;39.33
69402;BME280;56589;51.992;5.924;2022-08-21T10:31:38;101089.72;;;27.32;39.32
69402;BME280;56589;51.992;5.924;2022-08-21T10:34:25;101090.03;;;27.16;39.65
69402;BME280;56589;51.992;5.924;2022-08-21T10:37:13;101080.22;;;27.02;39.96
69402;BME280;56589;51.992;5.924;2022-08-21T10:40:02;101080.19;;;26.95;38.82
69402;BME280;56589;51.992;5.924;2022-08-21T10:45:44;101080.44;;;26.72;39.38
69402;BME280;56589;51.992;5.924;2022-08-21T10:48:25;101089.66;;;26.84;39.78
69402;BME280;56589;51.992;5.924;2022-08-21T10:50:59;101088.84;;;26.91;39.44
69402;BME280;56589;51.992;5.924;2022-08-21T10:53:41;101094.47;;;26.96;38.92
69402;BME280;56589;51.992;5.924;2022-08-21T10:56:22;101089.09;;;26.96;38.35
69402;BME280;56589;51.992;5.924;2022-08-21T10:58:59;101093.03;;;26.93;38.65
69402;BME280;56589;51.992;5.924;2022-08-21T11:01:41;101093.53;;;26.75;38.64
69402;BME280;56589;51.992;5.924;2022-08-21T11:04:18;101091.34;;;26.64;38.53
69402;BME280;56589;51.992;5.924;2022-08-21T11:06:46;101095.84;;;26.57;38.41
69402;BME280;56589;51.992;5.924;2022-08-21T11:09:17;101087.28;;;26.47;39.22
69402;BME280;56589;51.992;5.924;2022-08-21T11:11:54;101093.38;;;26.62;38.44
69402;BME280;56589;51.992;5.924;2022-08-21T11:14:30;101083.97;;;26.73;38.53
69402;BME280;56589;51.992;5.924;2022-08-21T11:17:07;101097.06;;;26.76;38.01
69402;BME280;56589;51.992;5.924;2022-08-21T11:19:40;101087.50;;;26.73;38.48
69402;BME280;56589;51.992;5.924;2022-08-21T11:22:16;101096.03;;;26.77;38.47
69402;BME280;56589;51.992;5.924;2022-08-21T11:24:55;101089.06;;;26.68;38.42
69402;BME280;56589;51.992;5.924;2022-08-21T11:27:33;101084.47;;;26.83;38.63
69402;BME280;56589;51.992;5.924;2022-08-21T11:30:06;101074.00;;;27.01;37.88
69402;BME280;56589;51.992;5.924;2022-08-21T11:32:46;101078.34;;;27.02;37.28
69402;BME280;56589;51.992;5.924;2022-08-21T11:35:33;101071.94;;;27.10;36.93
69402;BME280;56589;51.992;5.924;2022-08-21T11:38:16;101076.13;;;27.13;37.20
69402;BME280;56589;51.992;5.924;2022-08-21T11:41:06;101074.31;;;27.26;36.88
69402;BME280;56589;51.992;5.924;2022-08-21T11:43:47;101068.59;;;27.36;36.99
69402;BME280;56589;51.992;5.924;2022-08-21T11:46:25;101076.72;;;27.43;36.69
69402;BME280;56589;51.992;5.924;2022-08-21T11:49:06;101071.50;;;27.41;36.93
69402;BME280;56589;51.992;5.924;2022-08-21T11:51:50;101061.34;;;27.36;36.51
69402;BME280;56589;51.992;5.924;2022-08-21T11:54:26;101061.34;;;27.43;36.89
69402;BME280;56589;51.992;5.924;2022-08-21T11:57:01;101064.28;;;27.55;36.60
69402;BME280;56589;51.992;5.924;2022-08-21T11:59:39;101067.22;;;27.67;36.45
69402;BME280;56589;51.992;5.924;2022-08-21T12:02:14;101068.69;;;27.76;36.34
69402;BME280;56589;51.992;5.924;2022-08-21T12:04:46;101069.13;;;27.79;35.92
69402;BME280;56589;51.992;5.924;2022-08-21T12:07:16;101069.75;;;27.81;36.07
69402;BME280;56589;51.992;5.924;2022-08-21T12:09:57;101069.50;;;27.70;36.51
69402;BME280;56589;51.992;5.924;2022-08-21T12:12:28;101070.34;;;27.70;36.37
69402;BME280;56589;51.992;5.924;2022-08-21T12:15:28;101077.63;;;27.83;35.13
69402;BME280;56589;51.992;5.924;2022-08-21T12:17:58;101075.75;;;27.83;35.94
69402;BME280;56589;51.992;5.924;2022-08-21T12:20:38;101074.97;;;27.96;35.52
69402;BME280;56589;51.992;5.924;2022-08-21T12:23:19;101080.22;;;28.11;35.48
69402;BME280;56589;51.992;5.924;2022-08-21T12:26:01;101079.16;;;28.18;35.66
69402;BME280;56589;51.992;5.924;2022-08-21T12:28:43;101081.44;;;28.15;35.24
69402;BME280;56589;51.992;5.924;2022-08-21T12:31:24;101087.25;;;27.99;34.87
69402;BME280;56589;51.992;5.924;2022-08-21T12:33:57;101085.75;;;27.89;35.83
69402;BME280;56589;51.992;5.924;2022-08-21T12:36:42;101077.41;;;27.84;35.43
69402;BME280;56589;51.992;5.924;2022-08-21T12:39:13;101079.03;;;27.59;35.66
69402;BME280;56589;51.992;5.924;2022-08-21T12:41:49;101079.44;;;27.56;36.28
69402;BME280;56589;51.992;5.924;2022-08-21T12:44:24;101078.03;;;27.73;35.63
69402;BME280;56589;51.992;5.924;2022-08-21T12:47:03;101073.06;;;27.83;35.57
69402;BME280;56589;51.992;5.924;2022-08-21T12:49:35;101081.44;;;28.02;35.09
69402;BME280;56589;51.992;5.924;2022-08-21T12:52:07;101073.75;;;28.18;34.61
69402;BME280;56589;51.992;5.924;2022-08-21T12:54:42;101078.75;;;28.28;34.54
69402;BME280;56589;51.992;5.924;2022-08-21T12:57:18;101074.59;;;28.39;34.19
69402;BME280;56589;51.992;5.924;2022-08-21T12:59:52;101075.22;;;28.41;34.31
69402;BME280;56589;51.992;5.924;2022-08-21T13:02:24;101074.41;;;28.54;34.05
69402;BME280;56589;51.992;5.924;2022-08-21T13:04:54;101067.13;;;28.54;33.83
69402;BME280;56589;51.992;5.924;2022-08-21T13:07:27;101071.50;;;28.55;33.28
69402;BME280;56589;51.992;5.924;2022-08-21T13:09:59;101086.88;;;28.55;33.73